Time;durP1;ratioP1;P1;durP2;ratioP2;P2;SDS_P1;SDS_P2;PMS_P1;PMS_P2;Temp;Humidity;BMP_temperature;BMP_pressure;BME280_temperature;BME280_humidity;BME280_pressure;Samples;Min_cycle;Max_cycle;Signal;HPM_P1;HPM_P2
2022/04/16 11:45:51;;;;;;;;;;;23.30;61.30;;;;;;5268390;22;19946;-66
2022/04/16 11:49:00;;;;;;;;;;;23.70;61.00;;;;;;5093259;28;20323;-65
2022/04/16 11:51:27;;;;;;;;;;;24.00;60.40;;;;;;5070024;22;20381;-71
2022/04/16 11:53:53;;;;;;;;;;;24.00;60.00;;;;;;5075920;28;19912;-70
2022/04/16 11:56:20;;;;;;;;;;;24.30;60.00;;;;;;5094310;28;19930;-69
2022/04/16 11:58:48;;;;;;;;;;;24.00;60.00;;;;;;5094262;28;19909;-70
2022/04/16 12:01:18;;;;;;;;;;;24.00;60.20;;;;;;5094123;28;20074;-70
2022/04/16 12:03:44;;;;;;;;;;;23.70;58.60;;;;;;5093987;28;19961;-69
2022/04/16 12:06:10;;;;;;;;;;;23.80;59.50;;;;;;5094440;28;19912;-69
2022/04/16 12:08:36;;;;;;;;;;;23.80;67.60;;;;;;5093974;28;19993;-68
2022/04/16 12:11:03;;;;;;;;;;;23.70;68.90;;;;;;5094487;28;19912;-69
2022/04/16 12:13:36;;;;;;;;;;;23.80;69.30;;;;;;5075795;28;20274;-69
2022/04/16 12:16:07;;;;;;;;;;;24.10;69.70;;;;;;5094442;28;19908;-69
2022/04/16 12:18:46;;;;;;;;;;;24.00;69.50;;;;;;5094254;28;19908;-70
2022/04/16 12:21:13;;;;;;;;;;;24.10;69.50;;;;;;5094284;28;19908;-70
2022/04/16 12:23:40;;;;;;;;;;;24.40;68.70;;;;;;5094160;28;19915;-69
2022/04/16 12:26:07;;;;;;;;;;;24.40;69.70;;;;;;5093936;28;19946;-68
2022/04/16 12:28:37;;;;;;;;;;;24.50;69.00;;;;;;5094307;28;19961;-69
2022/04/16 12:31:03;;;;;;;;;;;24.70;68.20;;;;;;5093918;28;19908;-69
2022/04/16 12:33:31;;;;;;;;;;;24.80;67.90;;;;;;5092411;28;21297;-70
2022/04/16 12:35:59;;;;;;;;;;;24.60;68.00;;;;;;5094037;28;19909;-69
2022/04/16 12:38:25;;;;;;;;;;;24.30;68.40;;;;;;5093751;28;20282;-67
2022/04/16 12:40:52;;;;;;;;;;;24.30;72.10;;;;;;5094122;28;19908;-69
2022/04/16 12:43:18;;;;;;;;;;;24.20;73.50;;;;;;5093921;28;19961;-69
2022/04/16 12:45:44;;;;;;;;;;;24.00;70.60;;;;;;5075486;28;19908;-69
2022/04/16 12:48:10;;;;;;;;;;;23.80;69.70;;;;;;5093932;28;20015;-68
2022/04/16 12:50:35;;;;;;;;;;;23.70;70.20;;;;;;5093367;28;20259;-69
2022/04/16 12:53:03;;;;;;;;;;;23.50;69.00;;;;;;5093801;28;20318;-69
2022/04/16 12:55:29;;;;;;;;;;;23.70;70.50;;;;;;5092857;28;20366;-69
2022/04/16 12:57:55;;;;;;;;;;;23.50;69.80;;;;;;5093473;28;19908;-69
2022/04/16 13:00:21;;;;;;;;;;;23.60;69.00;;;;;;5093379;28;19909;-69
2022/04/16 13:02:47;;;;;;;;;;;23.70;69.80;;;;;;5093592;28;19918;-68
2022/04/16 13:05:14;;;;;;;;;;;23.80;68.90;;;;;;5093230;28;19996;-68
2022/04/16 13:07:40;;;;;;;;;;;24.00;71.40;;;;;;5075115;28;20042;-69
2022/04/16 13:10:06;;;;;;;;;;;24.00;71.70;;;;;;5093341;28;19951;-69
2022/04/16 13:12:33;;;;;;;;;;;24.10;73.00;;;;;;5093779;28;19908;-69
2022/04/16 13:14:59;;;;;;;;;;;24.20;71.70;;;;;;5093178;28;19909;-70
2022/04/16 13:17:25;;;;;;;;;;;24.30;73.80;;;;;;5093406;28;19998;-68
2022/04/16 13:19:52;;;;;;;;;;;24.10;75.40;;;;;;5093266;28;19916;-70
2022/04/16 13:22:18;;;;;;;;;;;24.00;77.80;;;;;;5093232;28;19944;-68
2022/04/16 13:24:54;;;;;;;;;;;24.00;78.20;;;;;;5092800;28;19927;-70
2022/04/16 13:27:22;;;;;;;;;;;24.10;77.60;;;;;;5093059;28;19916;-64
2022/04/16 13:29:48;;;;;;;;;;;24.10;76.50;;;;;;5085100;28;19912;-64
2022/04/16 13:32:14;;;;;;;;;;;24.10;73.20;;;;;;5086736;28;19966;-64
2022/04/16 13:34:43;;;;;;;;;;;24.10;74.50;;;;;;5087600;28;19942;-64
2022/04/16 13:37:09;;;;;;;;;;;24.00;72.80;;;;;;5072586;28;20366;-67
2022/04/16 13:42:21;;;;;;;;;;;24.20;71.50;;;;;;5072863;28;20003;-69
2022/04/16 13:44:50;;;;;;;;;;;24.30;70.80;;;;;;5073311;28;19912;-68
2022/04/16 13:47:20;;;;;;;;;;;24.10;71.50;;;;;;5076706;28;19927;-71
2022/04/16 13:49:47;;;;;;;;;;;23.90;73.90;;;;;;5075960;28;20027;-69
2022/04/16 13:52:13;;;;;;;;;;;23.80;73.50;;;;;;5075893;28;19921;-70
2022/04/16 13:54:39;;;;;;;;;;;23.80;73.40;;;;;;5076385;28;19999;-70
2022/04/16 13:57:06;;;;;;;;;;;23.80;74.50;;;;;;5075932;28;19958;-68
2022/04/16 13:59:32;;;;;;;;;;;23.40;75.70;;;;;;5075778;28;19908;-69
2022/04/16 14:01:58;;;;;;;;;;;23.40;74.10;;;;;;5075972;28;19915;-68
2022/04/16 14:04:24;;;;;;;;;;;23.20;73.30;;;;;;5076271;28;19930;-69
2022/04/16 14:06:50;;;;;;;;;;;23.50;70.60;;;;;;5075839;28;20306;-68
2022/04/16 14:09:15;;;;;;;;;;;23.40;71.90;;;;;;5076171;28;20327;-67
2022/04/16 14:11:45;;;;;;;;;;;23.10;73.90;;;;;;5075912;28;19944;-68
2022/04/16 14:14:11;;;;;;;;;;;23.30;76.30;;;;;;5076128;28;19916;-69
2022/04/16 14:16:36;;;;;;;;;;;23.30;77.60;;;;;;5075876;28;19913;-68
2022/04/16 14:19:02;;;;;;;;;;;23.60;79.00;;;;;;5075721;28;19908;-69
2022/04/16 14:21:28;;;;;;;;;;;23.30;82.80;;;;;;5075757;28;20270;-69
2022/04/16 14:23:54;;;;;;;;;;;23.20;83.50;;;;;;5075923;28;20344;-68
2022/04/16 14:26:20;;;;;;;;;;;23.20;84.60;;;;;;5075492;28;19908;-69
2022/04/16 14:28:52;;;;;;;;;;;23.20;85.30;;;;;;5075528;28;20206;-70
2022/04/16 14:31:18;;;;;;;;;;;23.20;85.90;;;;;;5075538;28;19908;-69
2022/04/16 14:33:44;;;;;;;;;;;23.30;87.20;;;;;;5075033;28;19908;-69
2022/04/16 14:36:10;;;;;;;;;;;23.10;87.60;;;;;;5075827;28;19908;-70
2022/04/16 14:38:39;;;;;;;;;;;23.00;88.10;;;;;;5075374;28;20458;-69
2022/04/16 14:41:11;;;;;;;;;;;22.90;88.90;;;;;;5075370;28;20007;-69
2022/04/16 14:43:48;;;;;;;;;;;23.00;88.80;;;;;;5075567;28;19912;-69
2022/04/16 14:46:16;;;;;;;;;;;23.00;88.30;;;;;;5057026;28;19916;-69
2022/04/16 14:48:42;;;;;;;;;;;23.00;87.50;;;;;;5075397;28;20019;-69
2022/04/16 14:51:08;;;;;;;;;;;22.90;88.20;;;;;;5075062;28;19913;-69
2022/04/16 14:53:35;;;;;;;;;;;23.00;88.30;;;;;;5075406;28;19931;-70
2022/04/16 14:56:01;;;;;;;;;;;23.00;88.20;;;;;;5074620;28;19916;-70
2022/04/16 14:58:27;;;;;;;;;;;22.90;87.60;;;;;;5074208;28;20348;-69
2022/04/16 15:00:53;;;;;;;;;;;22.60;88.00;;;;;;5074280;28;19970;-70
2022/04/16 15:03:18;;;;;;;;;;;22.70;87.90;;;;;;5074872;28;20339;-70
2022/04/16 15:05:44;;;;;;;;;;;22.60;86.30;;;;;;5074497;28;20004;-70
2022/04/16 15:08:10;;;;;;;;;;;22.40;86.50;;;;;;5074428;28;20249;-70
2022/04/16 15:10:36;;;;;;;;;;;22.40;86.00;;;;;;5074418;28;19908;-68
2022/04/16 15:13:02;;;;;;;;;;;22.40;87.50;;;;;;5074306;28;20297;-71
2022/04/16 15:15:28;;;;;;;;;;;22.40;88.70;;;;;;5074432;28;19909;-69
2022/04/16 15:17:54;;;;;;;;;;;22.40;89.50;;;;;;5056023;28;20078;-69
2022/04/16 15:20:22;;;;;;;;;;;22.10;90.20;;;;;;5074407;28;19909;-69
2022/04/16 15:22:48;;;;;;;;;;;22.00;90.60;;;;;;5088550;28;20078;-69
2022/04/16 15:25:14;;;;;;;;;;;21.60;91.10;;;;;;5094042;28;19908;-70
2022/04/16 15:27:40;;;;;;;;;;;21.60;91.30;;;;;;5093884;28;20054;-69
2022/04/16 15:30:06;;;;;;;;;;;21.60;91.20;;;;;;5094060;28;20045;-69
2022/04/16 15:32:32;;;;;;;;;;;21.60;91.60;;;;;;5094133;28;19916;-70
2022/04/16 15:34:58;;;;;;;;;;;21.70;91.60;;;;;;5094032;28;19912;-70
2022/04/16 15:37:26;;;;;;;;;;;21.70;91.70;;;;;;5094135;28;19915;-70
2022/04/16 15:39:52;;;;;;;;;;;21.60;92.00;;;;;;5075626;28;19908;-70
2022/04/16 15:42:18;;;;;;;;;;;21.60;91.70;;;;;;5094176;28;19947;-70
2022/04/16 15:44:44;;;;;;;;;;;21.70;91.80;;;;;;5093826;28;20401;-70
2022/04/16 15:47:12;;;;;;;;;;;21.60;91.70;;;;;;5093794;28;19967;-69
2022/04/16 15:49:40;;;;;;;;;;;21.50;91.80;;;;;;5075478;28;19909;-69
2022/04/16 15:52:06;;;;;;;;;;;21.30;92.30;;;;;;5075132;28;19921;-69
2022/04/16 15:54:32;;;;;;;;;;;21.10;92.60;;;;;;5093304;28;19908;-69
2022/04/16 15:56:58;;;;;;;;;;;21.00;92.90;;;;;;5075151;28;19916;-68
2022/04/16 15:59:24;;;;;;;;;;;20.90;93.50;;;;;;5093225;28;19908;-69
2022/04/16 16:01:50;;;;;;;;;;;20.80;93.70;;;;;;5093010;28;19908;-69
2022/04/16 16:07:01;;;;;;;;;;;20.50;94.00;;;;;;5093071;28;19935;-63
2022/04/16 16:09:26;;;;;;;;;;;20.60;93.90;;;;;;5092661;28;19912;-70
2022/04/16 16:11:52;;;;;;;;;;;20.80;93.90;;;;;;5092674;28;20019;-69
2022/04/16 16:14:18;;;;;;;;;;;20.80;93.60;;;;;;5092685;28;19915;-68
2022/04/16 16:16:44;;;;;;;;;;;20.80;93.70;;;;;;5093003;28;20003;-70
2022/04/16 16:19:11;;;;;;;;;;;20.90;93.70;;;;;;5094137;28;19950;-69
2022/04/16 16:21:37;;;;;;;;;;;20.60;93.80;;;;;;5093409;28;19912;-68
2022/04/16 16:24:03;;;;;;;;;;;20.50;94.20;;;;;;5093517;28;19908;-69
2022/04/16 16:26:29;;;;;;;;;;;20.50;94.50;;;;;;5093515;28;20275;-69
2022/04/16 16:28:56;;;;;;;;;;;20.30;94.60;;;;;;5074871;28;19912;-65
2022/04/16 16:31:22;;;;;;;;;;;20.00;95.00;;;;;;5093304;28;20379;-70
2022/04/16 16:33:48;;;;;;;;;;;20.00;95.20;;;;;;5093644;28;19908;-69
2022/04/16 16:36:14;;;;;;;;;;;19.90;95.20;;;;;;5093434;28;19909;-70
2022/04/16 16:38:39;;;;;;;;;;;19.80;95.30;;;;;;5093169;28;19980;-66
2022/04/16 16:41:07;;;;;;;;;;;19.70;95.50;;;;;;5093064;28;19908;-69
2022/04/16 16:43:34;;;;;;;;;;;19.70;96.00;;;;;;5093247;28;20049;-69
2022/04/16 16:46:00;;;;;;;;;;;19.60;96.30;;;;;;5092770;28;19924;-69
2022/04/16 16:48:26;;;;;;;;;;;19.50;96.50;;;;;;5074552;28;19923;-69
2022/04/16 16:50:53;;;;;;;;;;;19.50;96.70;;;;;;5092491;28;19908;-64
2022/04/16 16:53:19;;;;;;;;;;;19.30;96.70;;;;;;5092775;28;19908;-69
2022/04/16 16:55:45;;;;;;;;;;;19.30;97.20;;;;;;5092517;28;19908;-69
2022/04/16 16:58:10;;;;;;;;;;;19.30;97.40;;;;;;5092414;28;19919;-69
2022/04/16 17:00:36;;;;;;;;;;;19.20;97.50;;;;;;5092884;28;19915;-69
2022/04/16 17:05:47;;;;;;;;;;;19.10;98.10;;;;;;5092615;28;20041;-69
2022/04/16 17:08:13;;;;;;;;;;;19.00;98.90;;;;;;5092543;28;20006;-69
2022/04/16 17:10:41;;;;;;;;;;;19.00;99.60;;;;;;5092542;28;19908;-69
2022/04/16 17:13:07;;;;;;;;;;;18.90;99.30;;;;;;5092542;28;20340;-69
2022/04/16 17:21:02;;;;;;;;;;;18.30;99.90;;;;;;5091902;28;19976;-67
2022/04/16 17:23:28;;;;;;;;;;;18.10;99.90;;;;;;5092483;28;20440;-69
2022/04/16 17:25:54;;;;;;;;;;;18.10;99.90;;;;;;5092920;28;19908;-70
2022/04/16 17:28:20;;;;;;;;;;;18.00;99.90;;;;;;5092245;28;19928;-69
2022/04/16 17:30:46;;;;;;;;;;;18.00;99.90;;;;;;5092275;28;19915;-69
2022/04/16 17:33:12;;;;;;;;;;;18.10;99.90;;;;;;5092359;28;19908;-67
2022/04/16 17:35:38;;;;;;;;;;;18.10;99.90;;;;;;5074043;28;19961;-67
2022/04/16 17:38:04;;;;;;;;;;;18.10;99.90;;;;;;5092666;28;19908;-69
2022/04/16 17:40:31;;;;;;;;;;;18.00;99.90;;;;;;5092983;28;20271;-69
2022/04/16 17:42:57;;;;;;;;;;;18.10;99.90;;;;;;5074048;28;19912;-70
2022/04/16 17:45:23;;;;;;;;;;;18.00;99.90;;;;;;5092181;28;19919;-68
2022/04/16 17:47:49;;;;;;;;;;;17.90;99.90;;;;;;5092304;28;20355;-69
2022/04/16 17:50:15;;;;;;;;;;;17.90;99.90;;;;;;5092269;28;19912;-68
2022/04/16 17:52:41;;;;;;;;;;;17.90;99.90;;;;;;5091431;28;20282;-69
2022/04/16 17:55:08;;;;;;;;;;;17.80;99.90;;;;;;5091889;28;20061;-69
2022/04/16 17:57:34;;;;;;;;;;;17.80;99.90;;;;;;5091853;28;19934;-69
2022/04/16 18:00:00;;;;;;;;;;;17.90;99.90;;;;;;5091911;28;19908;-68
2022/04/16 18:02:26;;;;;;;;;;;17.80;99.90;;;;;;5091523;28;20003;-69
2022/04/16 18:04:52;;;;;;;;;;;17.70;99.90;;;;;;5091424;28;19912;-68
2022/04/16 18:07:20;;;;;;;;;;;17.70;99.90;;;;;;5091701;28;20366;-69
2022/04/16 18:09:47;;;;;;;;;;;17.50;99.90;;;;;;5091626;28;19970;-64
2022/04/16 18:12:13;;;;;;;;;;;17.50;99.90;;;;;;5092233;28;19908;-64
2022/04/16 18:14:39;;;;;;;;;;;17.50;99.90;;;;;;5073827;28;19926;-65
2022/04/16 18:17:08;;;;;;;;;;;17.60;99.90;;;;;;5092471;28;20333;-74
2022/04/16 18:19:34;;;;;;;;;;;17.50;99.90;;;;;;5092087;28;19952;-70
2022/04/16 18:22:01;;;;;;;;;;;17.30;99.90;;;;;;5092169;28;19908;-71
2022/04/16 18:24:27;;;;;;;;;;;17.10;99.90;;;;;;5091259;28;19912;-70
2022/04/16 18:26:53;;;;;;;;;;;17.10;99.90;;;;;;5091963;28;19973;-69
2022/04/16 18:29:21;;;;;;;;;;;17.00;99.90;;;;;;5091977;28;20371;-69
2022/04/16 18:31:50;;;;;;;;;;;16.90;99.90;;;;;;5092027;28;19919;-69
2022/04/16 18:34:17;;;;;;;;;;;16.70;99.90;;;;;;5096132;28;19961;-70
2022/04/16 18:36:44;;;;;;;;;;;16.50;99.90;;;;;;5095662;28;19908;-69
2022/04/16 18:39:10;;;;;;;;;;;16.40;99.90;;;;;;5095627;28;19948;-69
2022/04/16 18:41:37;;;;;;;;;;;16.30;99.90;;;;;;5095368;28;20359;-70
2022/04/16 18:44:04;;;;;;;;;;;16.10;99.90;;;;;;5095639;28;19908;-70
2022/04/16 18:46:30;;;;;;;;;;;16.10;99.90;;;;;;5095322;28;20442;-69
2022/04/16 18:48:56;;;;;;;;;;;16.00;99.90;;;;;;5094701;28;20045;-69
2022/04/16 18:51:22;;;;;;;;;;;16.00;99.90;;;;;;5094406;28;20051;-69
2022/04/16 18:53:48;;;;;;;;;;;16.10;99.90;;;;;;5076484;28;19916;-69
2022/04/16 18:56:15;;;;;;;;;;;16.00;99.90;;;;;;5094920;28;20208;-69
2022/04/16 18:58:43;;;;;;;;;;;16.10;99.90;;;;;;5094419;28;19915;-70
2022/04/16 19:06:52;;;;;;;;;;;16.10;99.90;;;;;;5094336;28;20003;-71
2022/04/16 19:09:19;;;;;;;;;;;16.20;99.90;;;;;;5094387;28;20002;-70
2022/04/16 19:11:45;;;;;;;;;;;16.20;99.90;;;;;;5094097;28;19908;-69
2022/04/16 19:14:12;;;;;;;;;;;16.20;99.90;;;;;;5093726;28;19908;-69
2022/04/16 19:16:38;;;;;;;;;;;16.20;99.90;;;;;;5093935;28;19912;-69
2022/04/16 19:19:05;;;;;;;;;;;16.30;99.90;;;;;;5093811;28;19920;-68
2022/04/16 19:21:31;;;;;;;;;;;16.30;99.90;;;;;;5094271;28;19925;-69
2022/04/16 19:23:59;;;;;;;;;;;16.30;99.90;;;;;;5093970;28;19970;-69
2022/04/16 19:26:26;;;;;;;;;;;16.40;99.90;;;;;;5068069;28;19938;-69
2022/04/16 19:28:53;;;;;;;;;;;16.40;99.90;;;;;;5093302;28;19916;-69
2022/04/16 19:31:19;;;;;;;;;;;16.30;99.90;;;;;;5094051;28;20056;-69
2022/04/16 19:33:45;;;;;;;;;;;16.30;99.90;;;;;;5094019;28;20267;-69
2022/04/16 19:36:11;;;;;;;;;;;16.20;99.90;;;;;;5075393;28;19950;-69
2022/04/16 19:38:37;;;;;;;;;;;16.10;99.90;;;;;;5093659;28;19908;-68
2022/04/16 19:41:04;;;;;;;;;;;16.20;99.90;;;;;;5093475;28;19980;-69
2022/04/16 19:43:30;;;;;;;;;;;16.10;99.90;;;;;;5074861;28;20287;-70
2022/04/16 19:45:56;;;;;;;;;;;16.20;99.90;;;;;;5093567;28;20371;-69
2022/04/16 19:48:21;;;;;;;;;;;16.20;99.90;;;;;;5075034;28;19916;-69
2022/04/16 19:50:51;;;;;;;;;;;16.20;99.90;;;;;;5093308;28;19912;-70
2022/04/16 19:53:17;;;;;;;;;;;16.20;99.90;;;;;;5093695;28;19916;-69
2022/04/16 19:55:45;;;;;;;;;;;16.20;99.90;;;;;;5074593;28;19912;-69
2022/04/16 19:58:12;;;;;;;;;;;16.20;99.90;;;;;;5092676;28;19931;-69
2022/04/16 20:00:39;;;;;;;;;;;16.30;99.90;;;;;;5092533;28;19934;-69
2022/04/16 20:03:05;;;;;;;;;;;16.30;99.90;;;;;;5092897;28;19920;-70
2022/04/16 20:05:31;;;;;;;;;;;16.30;99.90;;;;;;5074113;28;19908;-69
2022/04/16 20:10:42;;;;;;;;;;;16.30;99.90;;;;;;5092812;28;20243;-69
2022/04/16 20:10:44;;;;;;;;;;;16.30;99.90;;;;;;5092335;28;19915;-70
2022/04/16 20:13:10;;;;;;;;;;;16.30;99.90;;;;;;5092529;28;19908;-70
2022/04/16 20:15:36;;;;;;;;;;;16.30;99.90;;;;;;5092526;28;20314;-70
2022/04/16 20:18:02;;;;;;;;;;;16.10;99.90;;;;;;5092289;28;19927;-69
2022/04/16 20:20:31;;;;;;;;;;;16.00;99.90;;;;;;5092189;28;19911;-73
2022/04/16 20:22:57;;;;;;;;;;;15.70;99.90;;;;;;5092096;28;19970;-73
2022/04/16 20:25:23;;;;;;;;;;;15.60;99.90;;;;;;5092280;28;19908;-70
2022/04/16 20:27:52;;;;;;;;;;;15.50;99.90;;;;;;5092504;28;20011;-70
2022/04/16 20:30:18;;;;;;;;;;;15.40;99.90;;;;;;5073707;28;19991;-69
2022/04/16 20:32:44;;;;;;;;;;;15.30;99.90;;;;;;5092004;28;20334;-70
2022/04/16 20:35:10;;;;;;;;;;;15.20;99.90;;;;;;5091763;28;19999;-70
2022/04/16 20:37:37;;;;;;;;;;;15.20;99.90;;;;;;5091779;28;19914;-68
2022/04/16 20:45:35;;;;;;;;;;;15.30;99.90;;;;;;5091353;28;19981;-69
2022/04/16 20:48:02;;;;;;;;;;;15.30;99.90;;;;;;5091935;28;19916;-71
2022/04/16 20:50:28;;;;;;;;;;;15.20;99.90;;;;;;5073519;28;19915;-69
2022/04/16 20:55:39;;;;;;;;;;;15.20;99.90;;;;;;5091500;28;19919;-68
2022/04/16 20:58:05;;;;;;;;;;;15.10;99.90;;;;;;5091610;28;20320;-70
2022/04/16 21:00:32;;;;;;;;;;;15.10;99.90;;;;;;5073124;28;19908;-69
2022/04/16 21:02:58;;;;;;;;;;;15.20;99.90;;;;;;5091555;28;19912;-71
2022/04/16 21:05:24;;;;;;;;;;;15.20;99.90;;;;;;5091793;28;19919;-70
2022/04/16 21:07:50;;;;;;;;;;;15.20;99.90;;;;;;5092044;28;19916;-67
2022/04/16 21:10:16;;;;;;;;;;;15.20;99.90;;;;;;5083065;28;20359;-70
2022/04/16 21:12:44;;;;;;;;;;;15.10;99.90;;;;;;5090277;28;20014;-69
2022/04/16 21:15:10;;;;;;;;;;;15.10;99.90;;;;;;5073102;28;19970;-70
2022/04/16 21:17:36;;;;;;;;;;;15.10;99.90;;;;;;5091350;28;19950;-70
2022/04/16 21:20:04;;;;;;;;;;;15.10;99.90;;;;;;5090902;28;19952;-69
2022/04/16 21:22:30;;;;;;;;;;;15.10;99.90;;;;;;5090626;28;19912;-68
2022/04/16 21:24:56;;;;;;;;;;;15.10;99.90;;;;;;5090786;28;19912;-69
2022/04/16 21:27:21;;;;;;;;;;;15.20;99.90;;;;;;5091239;28;20239;-69
2022/04/16 21:29:53;;;;;;;;;;;15.20;99.90;;;;;;5091221;28;19919;-69
2022/04/16 21:32:19;;;;;;;;;;;15.20;99.90;;;;;;5090760;28;20055;-69
2022/04/16 21:34:45;;;;;;;;;;;15.20;99.90;;;;;;5090994;28;19915;-70
2022/04/16 21:37:11;;;;;;;;;;;15.20;99.90;;;;;;5091150;28;19914;-69
2022/04/16 21:39:37;;;;;;;;;;;15.20;99.90;;;;;;5091464;28;19908;-69
2022/04/16 21:42:03;;;;;;;;;;;15.10;99.90;;;;;;5072812;28;20249;-69
2022/04/16 21:44:29;;;;;;;;;;;15.00;99.90;;;;;;5091441;28;20006;-69
2022/04/16 21:46:55;;;;;;;;;;;14.90;99.90;;;;;;5081649;28;19917;-67
2022/04/16 21:49:21;;;;;;;;;;;15.00;99.90;;;;;;5070773;28;19909;-70
2022/04/16 21:51:47;;;;;;;;;;;15.00;99.90;;;;;;5070491;28;19963;-70
2022/04/16 21:54:13;;;;;;;;;;;15.10;99.90;;;;;;5070589;28;19940;-70
2022/04/16 21:56:38;;;;;;;;;;;15.10;99.90;;;;;;5070801;28;19959;-69
2022/04/16 21:59:04;;;;;;;;;;;15.00;99.90;;;;;;5071148;28;20035;-70
2022/04/16 22:01:33;;;;;;;;;;;15.10;99.90;;;;;;5070525;28;20288;-69
2022/04/16 22:04:00;;;;;;;;;;;15.10;99.90;;;;;;5070428;28;19908;-69
2022/04/16 22:06:25;;;;;;;;;;;15.20;99.90;;;;;;5072087;28;19908;-69
2022/04/16 22:08:51;;;;;;;;;;;15.30;99.90;;;;;;5074982;28;20324;-70
2022/04/16 22:11:17;;;;;;;;;;;15.40;99.90;;;;;;5068665;28;19919;-70
2022/04/16 22:13:43;;;;;;;;;;;15.50;99.90;;;;;;5094602;28;19928;-69
2022/04/16 22:16:09;;;;;;;;;;;15.60;99.90;;;;;;5094805;28;19908;-69
2022/04/16 22:18:34;;;;;;;;;;;15.60;99.90;;;;;;5094767;28;19908;-69
2022/04/16 22:21:00;;;;;;;;;;;15.70;99.90;;;;;;5074585;28;20288;-69
2022/04/16 22:23:26;;;;;;;;;;;15.70;99.90;;;;;;5056617;28;20005;-68
2022/04/16 22:25:52;;;;;;;;;;;15.60;99.90;;;;;;5074230;28;19943;-69
2022/04/16 22:28:18;;;;;;;;;;;15.60;99.90;;;;;;5074277;28;19924;-69
2022/04/16 22:30:44;;;;;;;;;;;15.50;99.90;;;;;;5074547;28;20352;-70
2022/04/16 22:33:13;;;;;;;;;;;15.50;99.90;;;;;;5074167;28;19970;-70
2022/04/16 22:35:39;;;;;;;;;;;15.50;99.90;;;;;;5089316;28;19909;-69
2022/04/16 22:41:04;;;;;;;;;;;15.50;99.90;;;;;;5094430;28;19971;-69
2022/04/16 22:43:33;;;;;;;;;;;15.50;99.90;;;;;;5093807;28;19916;-69
2022/04/16 22:45:59;;;;;;;;;;;15.50;99.90;;;;;;5092786;28;19908;-70
2022/04/16 22:48:26;;;;;;;;;;;15.40;99.90;;;;;;5093317;28;20278;-70
2022/04/16 22:50:51;;;;;;;;;;;15.40;99.90;;;;;;5093587;28;19995;-70
2022/04/16 22:53:18;;;;;;;;;;;15.30;99.90;;;;;;5093933;28;20008;-69
2022/04/16 22:55:44;;;;;;;;;;;15.20;99.90;;;;;;5094000;28;19914;-70
2022/04/16 22:58:10;;;;;;;;;;;15.30;99.90;;;;;;5075340;28;19933;-70
2022/04/16 23:00:37;;;;;;;;;;;15.20;99.90;;;;;;5094184;28;19912;-70
2022/04/16 23:03:03;;;;;;;;;;;15.10;99.90;;;;;;5094541;28;20002;-69
2022/04/16 23:05:30;;;;;;;;;;;15.10;99.90;;;;;;5094121;28;19908;-69
2022/04/16 23:07:56;;;;;;;;;;;15.00;99.90;;;;;;5093928;28;19920;-71
2022/04/16 23:10:22;;;;;;;;;;;15.00;99.90;;;;;;5094505;28;20408;-70
2022/04/16 23:12:48;;;;;;;;;;;15.10;99.90;;;;;;5094010;28;19908;-70
2022/04/16 23:18:06;;;;;;;;;;;15.10;99.60;;;;;;5061769;28;20251;-69
2022/04/16 23:20:32;;;;;;;;;;;15.20;98.50;;;;;;5094027;28;20359;-70
2022/04/16 23:22:57;;;;;;;;;;;15.20;98.50;;;;;;5094068;28;19962;-69
2022/04/16 23:25:23;;;;;;;;;;;15.20;97.90;;;;;;5094150;28;19908;-70
2022/04/16 23:27:49;;;;;;;;;;;15.20;97.60;;;;;;5093823;28;19916;-71
2022/04/16 23:30:15;;;;;;;;;;;15.20;97.40;;;;;;5094138;28;20333;-71
2022/04/16 23:32:42;;;;;;;;;;;15.30;96.60;;;;;;5093801;28;19991;-70
2022/04/16 23:35:08;;;;;;;;;;;15.30;96.80;;;;;;5094147;28;20339;-70
2022/04/16 23:37:36;;;;;;;;;;;15.30;97.10;;;;;;5093737;28;20011;-69
2022/04/16 23:40:03;;;;;;;;;;;15.30;97.60;;;;;;5094012;28;19916;-69
2022/04/16 23:42:32;;;;;;;;;;;15.20;98.00;;;;;;5093413;28;20197;-69
2022/04/16 23:47:43;;;;;;;;;;;15.10;98.80;;;;;;5093825;28;19974;-69
2022/04/16 23:50:09;;;;;;;;;;;15.00;98.70;;;;;;5075069;28;20000;-70
2022/04/16 23:52:35;;;;;;;;;;;15.00;98.40;;;;;;5093298;28;20236;-70
2022/04/16 23:55:00;;;;;;;;;;;15.00;97.80;;;;;;5093474;28;19927;-70
2022/04/16 23:57:26;;;;;;;;;;;15.10;97.60;;;;;;5093564;28;19916;-70
2022/04/16 23:59:52;;;;;;;;;;;15.10;97.50;;;;;;5093395;28;20277;-71
